Terminal Aerodrome Forecast
Issued by NWS

Home | Current Version | Previous Version | Text Only | Print | Product List | Glossary Off
Versions: 1 2 3 4 5 6 7 8 9 10 11 12 13 14 15 16 17 18

000
FTUS43 KBIS 211127
TAFJMS
TAF
KJMS 211127Z 2112/2212 17012KT P6SM BKN110 WS020/18040KT
     FM211500 17018G27KT P6SM BKN120 BKN200
     FM220000 17011G19KT P6SM FEW070 FEW200
     FM220100 12006KT P6SM FEW070 FEW200
     FM220200 03005KT P6SM FEW080 FEW200=

USA.gov is the U.S. government's official web portal to all federal, state and local government web resources and services.